Time;durP1;ratioP1;P1;durP2;ratioP2;P2;SDS_P1;SDS_P2;PMS_P1;PMS_P2;Temp;Humidity;BMP_temperature;BMP_pressure;BME280_temperature;BME280_humidity;BME280_pressure;Samples;Min_cycle;Max_cycle;Signal;HPM_P1;HPM_P2
2021/05/11 00:00:24;;;;;;;7.53;3.70;;;;;;;14.08;85.98;100032.66;5091549;28;20235;-72
2021/05/11 00:02:50;;;;;;;4.30;3.70;;;;;;;14.05;86.26;100027.56;5090866;28;20779;-72
2021/05/11 00:05:16;;;;;;;5.57;4.30;;;;;;;14.00;86.66;100019.94;5088136;28;20209;-72
2021/05/11 00:07:42;;;;;;;4.70;3.80;;;;;;;13.99;87.13;100017.41;5089377;28;20202;-72
2021/05/11 00:10:09;;;;;;;5.73;3.90;;;;;;;13.94;86.91;100009.75;5090040;28;20230;-72
2021/05/11 00:12:36;;;;;;;5.13;4.27;;;;;;;13.89;86.42;100011.75;5094478;28;20205;-72
2021/05/11 00:15:03;;;;;;;7.37;3.93;;;;;;;13.85;87.54;99999.75;5090374;28;20201;-72
2021/05/11 00:17:29;;;;;;;6.53;4.30;;;;;;;13.84;87.61;100003.28;5090997;28;20277;-72
2021/05/11 00:19:55;;;;;;;6.83;4.43;;;;;;;13.80;87.02;99997.34;5087833;28;20214;-72
2021/05/11 00:22:21;;;;;;;4.80;3.93;;;;;;;13.76;87.76;99997.59;5087366;28;20194;-72
2021/05/11 00:24:47;;;;;;;5.57;3.77;;;;;;;13.74;87.91;99991.56;5090863;28;20197;-72
2021/05/11 00:27:13;;;;;;;5.60;4.13;;;;;;;13.70;87.96;99985.66;5093148;28;20562;-71
2021/05/11 00:29:40;;;;;;;5.27;3.90;;;;;;;13.70;87.88;99980.41;5091798;28;20197;-72
2021/05/11 00:32:06;;;;;;;5.43;3.90;;;;;;;13.70;87.89;99983.03;5090046;28;20837;-71
2021/05/11 00:34:35;;;;;;;4.03;3.50;;;;;;;13.64;87.23;99986.78;5079946;28;20190;-71
2021/05/11 00:37:01;;;;;;;4.50;3.80;;;;;;;13.59;86.70;99985.31;5087948;28;20665;-72
2021/05/11 00:39:27;;;;;;;5.50;3.77;;;;;;;13.55;87.19;99982.00;5089367;28;20277;-72
2021/05/11 00:41:53;;;;;;;5.40;4.30;;;;;;;13.48;86.92;99982.38;5091568;28;20229;-71
2021/05/11 00:44:20;;;;;;;5.90;3.73;;;;;;;13.44;86.89;99986.91;5090863;28;20273;-72
2021/05/11 00:46:54;;;;;;;6.87;4.00;;;;;;;13.38;87.00;99982.78;5088428;28;20197;-72
2021/05/11 00:49:21;;;;;;;6.33;4.20;;;;;;;13.35;87.69;99984.72;5087598;28;20202;-72
2021/05/11 00:51:47;;;;;;;5.23;4.47;;;;;;;13.34;88.56;99985.66;5092287;28;20217;-72
2021/05/11 00:54:13;;;;;;;6.37;4.57;;;;;;;13.30;88.95;99981.44;5084846;28;20216;-72
2021/05/11 00:56:40;;;;;;;5.57;4.10;;;;;;;13.31;89.93;99977.91;5089195;28;20193;-72
2021/05/11 00:59:11;;;;;;;10.90;4.10;;;;;;;13.31;89.66;99970.03;5090369;28;20204;-72
2021/05/11 01:01:37;;;;;;;5.57;4.37;;;;;;;13.25;89.71;99958.94;5084592;28;20293;-72
2021/05/11 01:04:04;;;;;;;6.40;4.27;;;;;;;13.22;91.06;99956.47;5083381;28;20808;-72
2021/05/11 01:06:30;;;;;;;9.80;4.47;;;;;;;13.23;91.00;99958.16;5081319;28;21098;-72
2021/05/11 01:08:56;;;;;;;5.37;4.30;;;;;;;13.17;89.76;99955.81;5087699;28;20198;-72
2021/05/11 01:11:22;;;;;;;5.23;4.33;;;;;;;13.13;89.50;99951.66;5087083;28;20247;-72
2021/05/11 01:13:48;;;;;;;5.10;4.20;;;;;;;13.12;90.94;99942.16;5089673;28;20238;-72
2021/05/11 01:16:14;;;;;;;4.80;4.30;;;;;;;13.10;90.10;99948.34;5090152;28;20213;-72
2021/05/11 01:18:41;;;;;;;7.70;4.70;;;;;;;13.04;89.91;99945.09;5088521;28;20205;-72
2021/05/11 01:21:21;;;;;;;7.57;4.20;;;;;;;13.01;90.86;99939.16;5086793;28;20262;-71
2021/05/11 01:24:00;;;;;;;6.30;4.57;;;;;;;12.98;92.52;99932.31;5087226;28;20267;-72
2021/05/11 01:26:29;;;;;;;4.67;4.13;;;;;;;13.00;92.95;99927.03;5086641;28;20679;-72
2021/05/11 01:29:04;;;;;;;6.47;4.33;;;;;;;12.97;92.51;99930.63;5090789;28;20551;-71
2021/05/11 01:32:10;;;;;;;5.77;4.20;;;;;;;13.00;92.16;99927.88;5089262;28;20626;-71
2021/05/11 01:48:43;;;;;;;5.07;4.30;;;;;;;13.24;88.68;99904.91;5082680;28;20731;-72
2021/05/11 01:51:15;;;;;;;6.30;4.27;;;;;;;13.31;88.45;99894.13;5083302;28;20276;-71
2021/05/11 01:53:58;;;;;;;7.80;4.53;;;;;;;13.34;88.26;99891.41;5086479;28;20227;-72
2021/05/11 01:56:53;;;;;;;6.57;4.17;;;;;;;13.46;87.19;99893.41;5086099;28;20199;-72
2021/05/11 02:10:44;;;;;;;6.47;3.80;;;;;;;13.96;83.52;99883.91;5084963;28;20326;-72
2021/05/11 02:24:17;;;;;;;5.90;3.70;;;;;;;14.63;79.33;99852.41;5082541;28;20626;-72
2021/05/11 02:26:43;;;;;;;6.10;3.93;;;;;;;14.61;79.37;99849.84;5087498;28;20655;-72
2021/05/11 02:29:10;;;;;;;5.30;3.77;;;;;;;14.61;79.29;99854.28;5084317;28;20650;-71
2021/05/11 02:31:35;;;;;;;5.30;3.80;;;;;;;14.65;78.56;99864.53;5087223;28;20854;-72
2021/05/11 02:34:02;;;;;;;5.17;3.70;;;;;;;14.65;78.40;99867.16;5089390;28;20201;-71
2021/05/11 02:36:28;;;;;;;6.80;3.70;;;;;;;14.46;79.77;99864.66;5087613;28;20208;-72
2021/05/11 02:38:54;;;;;;;4.13;3.73;;;;;;;14.42;79.84;99865.72;5090800;28;20209;-71
2021/05/11 02:41:20;;;;;;;4.47;3.53;;;;;;;14.39;79.43;99868.53;5090889;28;20726;-72
2021/05/11 02:43:46;;;;;;;5.73;3.73;;;;;;;14.30;79.83;99871.63;5088024;28;20238;-71
2021/05/11 02:46:13;;;;;;;5.97;3.83;;;;;;;14.19;80.65;99874.81;5083583;28;20198;-71
2021/05/11 02:48:39;;;;;;;3.87;3.40;;;;;;;14.11;80.56;99869.16;5086991;28;20198;-71
2021/05/11 02:51:05;;;;;;;5.27;3.87;;;;;;;14.10;80.70;99870.06;5087210;28;20230;-71
2021/05/11 02:53:31;;;;;;;4.93;3.70;;;;;;;14.12;80.23;99861.19;5083761;28;20573;-72
2021/05/11 02:55:57;;;;;;;3.90;3.50;;;;;;;14.18;79.91;99860.03;5087699;28;20203;-72
2021/05/11 02:58:23;;;;;;;5.63;3.93;;;;;;;14.18;79.61;99850.38;5088968;28;20702;-71
2021/05/11 03:00:49;;;;;;;5.27;3.80;;;;;;;14.20;79.73;99847.69;5084987;28;20212;-72
2021/05/11 03:03:16;;;;;;;4.43;3.97;;;;;;;14.17;80.29;99851.31;5088996;28;20224;-72
2021/05/11 03:05:42;;;;;;;7.30;3.73;;;;;;;14.15;79.77;99857.56;5088753;28;20203;-72
2021/05/11 03:08:13;;;;;;;5.20;3.80;;;;;;;14.15;79.64;99857.56;5089097;28;20292;-71
2021/05/11 03:10:39;;;;;;;4.20;3.80;;;;;;;14.09;79.95;99861.38;5081053;28;20254;-72
2021/05/11 03:13:05;;;;;;;6.03;4.00;;;;;;;14.07;80.00;99871.09;5087285;28;20739;-71
2021/05/11 03:15:31;;;;;;;4.53;3.73;;;;;;;13.95;79.88;99863.88;5088111;28;20236;-72
2021/05/11 03:17:57;;;;;;;6.37;4.10;;;;;;;13.80;80.77;99870.75;5083900;28;20208;-71
2021/05/11 03:20:24;;;;;;;4.17;3.73;;;;;;;13.69;80.86;99867.84;5088098;28;20260;-71
2021/05/11 03:22:50;;;;;;;4.63;4.10;;;;;;;13.58;81.49;99869.22;5083934;28;20220;-71
2021/05/11 03:25:16;;;;;;;7.07;4.30;;;;;;;13.48;81.89;99865.38;5087924;28;20201;-71
2021/05/11 03:27:42;;;;;;;4.43;3.90;;;;;;;13.40;82.30;99862.28;5085474;28;20198;-73
2021/05/11 03:30:09;;;;;;;5.70;3.73;;;;;;;13.30;82.50;99863.63;5082964;28;20760;-72
2021/05/11 03:32:35;;;;;;;6.23;4.30;;;;;;;13.21;83.64;99860.56;5088120;28;20672;-72
2021/05/11 03:35:01;;;;;;;6.93;4.57;;;;;;;13.15;83.77;99860.00;5095215;28;20216;-72
2021/05/11 03:37:28;;;;;;;8.67;4.90;;;;;;;13.10;84.30;99854.13;5085176;28;20192;-71
2021/05/11 03:39:54;;;;;;;9.40;4.60;;;;;;;13.06;85.19;99859.50;5088223;28;20206;-73
2021/05/11 03:42:24;;;;;;;5.67;4.43;;;;;;;13.03;84.91;99859.69;5088376;28;20271;-71
2021/05/11 03:44:53;;;;;;;5.67;4.23;;;;;;;12.97;84.75;99862.59;5081448;28;20230;-72
2021/05/11 03:47:21;;;;;;;6.03;4.80;;;;;;;12.91;85.20;99865.50;5086580;28;20692;-71
2021/05/11 03:49:47;;;;;;;4.73;4.07;;;;;;;12.86;85.33;99864.88;5087639;28;20284;-72
2021/05/11 03:52:13;;;;;;;4.67;4.00;;;;;;;12.83;86.06;99858.00;5085027;28;20244;-72
2021/05/11 03:54:40;;;;;;;4.97;4.03;;;;;;;12.80;86.43;99845.06;5087618;28;20193;-71
2021/05/11 03:57:07;;;;;;;8.90;4.50;;;;;;;12.81;87.08;99845.94;5086778;28;20230;-71
2021/05/11 03:59:34;;;;;;;6.60;4.60;;;;;;;12.80;87.33;99849.47;5087755;28;20206;-72
2021/05/11 04:02:01;;;;;;;6.00;4.47;;;;;;;12.77;87.17;99846.97;5086072;28;20237;-72
2021/05/11 04:04:27;;;;;;;4.93;4.43;;;;;;;12.76;87.01;99840.06;5087280;28;20285;-71
2021/05/11 04:06:53;;;;;;;6.50;4.80;;;;;;;12.80;87.14;99842.44;5083838;28;20205;-71
2021/05/11 04:09:24;;;;;;;8.60;5.10;;;;;;;12.91;86.34;99841.09;5085300;28;20202;-72
2021/05/11 04:12:11;;;;;;;5.90;4.40;;;;;;;13.05;85.91;99846.50;5086713;28;20270;-71
2021/05/11 04:17:29;;;;;;;5.90;4.30;;;;;;;13.30;85.09;99856.63;5088486;28;20230;-72
2021/05/11 04:19:55;;;;;;;6.37;4.50;;;;;;;13.47;84.69;99847.94;5086228;28;20789;-72
2021/05/11 04:22:21;;;;;;;4.80;4.27;;;;;;;13.66;84.32;99847.03;5086136;28;20204;-72
2021/05/11 04:24:47;;;;;;;6.33;4.57;;;;;;;13.81;83.90;99846.25;5083851;28;20262;-71
2021/05/11 04:27:14;;;;;;;11.77;5.40;;;;;;;13.93;83.08;99847.34;5081608;28;20213;-71
2021/05/11 04:29:40;;;;;;;6.00;5.30;;;;;;;14.00;82.20;99841.72;5080431;28;20198;-71
2021/05/11 04:32:06;;;;;;;8.87;5.27;;;;;;;14.06;82.02;99840.56;5085957;28;20232;-71
2021/05/11 04:34:32;;;;;;;6.00;4.87;;;;;;;14.12;82.00;99842.00;5085487;28;20197;-71
2021/05/11 04:36:58;;;;;;;6.30;4.40;;;;;;;14.22;81.57;99842.38;5085188;28;20264;-71
2021/05/11 04:39:24;;;;;;;7.50;5.70;;;;;;;14.30;81.37;99842.78;5087680;28;20601;-71
2021/05/11 04:41:50;;;;;;;8.27;5.57;;;;;;;14.40;80.76;99843.97;5091262;28;20230;-72
2021/05/11 04:44:20;;;;;;;5.87;4.93;;;;;;;14.49;81.21;99843.50;5088137;28;20221;-72
2021/05/11 04:46:51;;;;;;;5.73;5.03;;;;;;;14.70;79.49;99844.09;5088538;28;20197;-72
2021/05/11 04:49:17;;;;;;;7.20;5.10;;;;;;;14.89;79.87;99851.78;5083762;28;20216;-72
2021/05/11 04:51:43;;;;;;;7.70;5.53;;;;;;;14.99;78.96;99854.75;5089736;28;20245;-72
2021/05/11 04:54:10;;;;;;;8.93;5.07;;;;;;;15.15;77.35;99862.59;5086338;28;20198;-71
2021/05/11 04:56:36;;;;;;;8.83;5.57;;;;;;;15.28;77.18;99855.69;5090727;28;20266;-72
2021/05/11 04:59:03;;;;;;;6.93;5.30;;;;;;;15.41;76.60;99852.34;5087719;28;20206;-72
2021/05/11 05:01:30;;;;;;;9.07;5.70;;;;;;;15.48;76.11;99854.56;5085634;28;20634;-71
2021/05/11 05:03:58;;;;;;;6.47;5.17;;;;;;;15.57;75.34;99849.69;5086963;28;20222;-71
2021/05/11 05:06:24;;;;;;;6.20;5.30;;;;;;;15.65;75.36;99847.44;5087119;28;20215;-72
2021/05/11 05:08:50;;;;;;;8.97;5.40;;;;;;;15.69;74.52;99854.22;5083821;28;20964;-71
2021/05/11 05:11:17;;;;;;;7.60;5.47;;;;;;;15.66;74.72;99857.88;5084814;28;20285;-72
2021/05/11 05:13:43;;;;;;;8.50;6.10;;;;;;;15.73;74.70;99857.50;5087089;28;20604;-72
2021/05/11 05:16:09;;;;;;;9.80;7.20;;;;;;;15.81;74.17;99858.78;5089080;28;20191;-72
2021/05/11 05:18:36;;;;;;;11.27;6.50;;;;;;;15.98;72.81;99849.84;5083982;28;20662;-72
2021/05/11 05:21:06;;;;;;;12.87;6.30;;;;;;;16.10;73.48;99858.78;5086591;28;20218;-71
2021/05/11 05:23:38;;;;;;;11.63;6.53;;;;;;;16.30;72.11;99856.72;5084704;28;20235;-72
2021/05/11 05:26:06;;;;;;;8.40;6.20;;;;;;;16.39;72.63;99859.63;5089471;28;20242;-71
2021/05/11 05:28:34;;;;;;;8.77;6.10;;;;;;;16.44;72.39;99848.78;5086993;28;20199;-72
2021/05/11 05:31:02;;;;;;;10.23;6.90;;;;;;;16.56;70.75;99853.28;5089215;28;20787;-71
2021/05/11 05:33:32;;;;;;;10.87;7.13;;;;;;;16.66;70.90;99851.75;5088937;28;20197;-72
2021/05/11 05:35:59;;;;;;;9.97;7.40;;;;;;;16.75;70.69;99846.84;5085778;28;20202;-71
2021/05/11 05:38:26;;;;;;;9.67;6.73;;;;;;;16.84;70.66;99843.66;5086547;28;20586;-71
2021/05/11 05:40:57;;;;;;;10.17;7.00;;;;;;;16.97;69.14;99835.81;5091594;28;20670;-71
2021/05/11 05:43:23;;;;;;;8.70;6.37;;;;;;;17.02;69.22;99834.53;5086078;28;20646;-71
2021/05/11 05:45:52;;;;;;;9.07;6.40;;;;;;;17.09;70.11;99839.44;5088377;28;20197;-72
2021/05/11 05:48:18;;;;;;;9.10;6.17;;;;;;;17.18;69.55;99825.66;5085922;28;20208;-71
2021/05/11 05:50:44;;;;;;;9.07;6.53;;;;;;;17.32;69.16;99830.84;5087052;28;20225;-72
2021/05/11 05:53:14;;;;;;;10.53;7.33;;;;;;;17.48;68.62;99833.28;5086053;28;20206;-72
2021/05/11 05:55:41;;;;;;;11.57;6.70;;;;;;;17.60;67.48;99831.63;5085396;28;20198;-72
2021/05/11 05:58:07;;;;;;;11.97;7.13;;;;;;;17.70;67.43;99827.41;5086195;28;20205;-72
2021/05/11 06:00:33;;;;;;;14.03;7.07;;;;;;;17.84;67.11;99820.34;5088702;28;20282;-72
2021/05/11 06:03:07;;;;;;;10.60;7.30;;;;;;;17.96;66.36;99819.53;5087132;28;20194;-72
2021/05/11 06:05:34;;;;;;;13.70;7.33;;;;;;;18.05;66.79;99810.13;5082137;28;20205;-72
2021/05/11 06:08:00;;;;;;;12.30;7.27;;;;;;;18.16;67.30;99805.78;5086569;28;20197;-72
2021/05/11 06:10:29;;;;;;;10.93;6.90;;;;;;;18.28;66.56;99803.22;5082505;28;20718;-72
2021/05/11 06:12:59;;;;;;;10.10;6.40;;;;;;;18.38;65.53;99804.25;5086653;28;20198;-71
2021/05/11 06:18:12;;;;;;;9.37;5.33;;;;;;;18.47;65.50;99803.59;5077882;28;20780;-72
2021/05/11 06:20:38;;;;;;;7.57;5.00;;;;;;;18.54;65.24;99788.16;5080571;28;20229;-72
2021/05/11 06:23:04;;;;;;;6.00;4.37;;;;;;;18.64;66.35;99785.69;5086559;28;20193;-72
2021/05/11 06:25:31;;;;;;;6.67;4.13;;;;;;;18.80;65.05;99782.75;5083749;28;20656;-72
2021/05/11 06:27:58;;;;;;;5.67;4.17;;;;;;;18.96;64.74;99786.00;5088839;28;20212;-72
2021/05/11 06:30:24;;;;;;;5.13;4.27;;;;;;;19.08;63.30;99792.13;5087081;28;20213;-72
2021/05/11 06:32:50;;;;;;;4.80;3.60;;;;;;;19.15;64.85;99793.38;5087959;28;20573;-72
2021/05/11 06:35:16;;;;;;;6.30;3.63;;;;;;;19.30;63.81;99784.28;5083750;28;20235;-72
2021/05/11 06:37:42;;;;;;;6.20;3.90;;;;;;;19.49;62.93;99781.09;5086544;28;20202;-72
2021/05/11 06:40:10;;;;;;;5.77;4.00;;;;;;;19.61;62.08;99781.94;5084784;28;20230;-72
2021/05/11 06:42:39;;;;;;;7.27;5.63;;;;;;;19.67;61.97;99788.56;5089578;28;20276;-72
2021/05/11 06:45:14;;;;;;;10.80;8.00;;;;;;;19.79;61.70;99785.00;5080628;28;21001;-72
2021/05/11 06:50:34;;;;;;;10.43;7.40;;;;;;;20.07;63.68;99768.75;5084587;28;20295;-72
2021/05/11 06:53:12;;;;;;;8.47;6.50;;;;;;;20.16;62.55;99774.16;5085705;28;20204;-72
2021/05/11 06:55:41;;;;;;;7.43;5.67;;;;;;;20.28;63.08;99774.13;5085108;28;20204;-72
2021/05/11 06:58:08;;;;;;;7.50;5.93;;;;;;;20.38;61.42;99785.66;5087079;28;20316;-72
2021/05/11 07:00:35;;;;;;;7.37;5.30;;;;;;;20.50;61.02;99783.84;5087654;28;20233;-72
2021/05/11 07:03:01;;;;;;;9.50;5.73;;;;;;;20.65;60.63;99784.41;5081749;28;20190;-72
2021/05/11 07:05:31;;;;;;;6.20;4.47;;;;;;;20.80;59.65;99769.91;5083785;28;20567;-72
2021/05/11 07:08:05;;;;;;;5.30;4.07;;;;;;;20.86;59.21;99763.28;5086492;28;20209;-72
2021/05/11 07:10:34;;;;;;;7.70;4.00;;;;;;;20.99;59.40;99769.25;5082501;28;20217;-72
2021/05/11 07:13:10;;;;;;;6.60;4.40;;;;;;;21.02;59.45;99762.84;5085672;28;20214;-72
2021/05/11 07:15:39;;;;;;;6.13;4.20;;;;;;;21.06;58.46;99762.47;5084126;28;20740;-72
2021/05/11 07:18:07;;;;;;;6.33;4.30;;;;;;;21.16;59.96;99759.88;5087912;28;20194;-72
2021/05/11 07:20:33;;;;;;;7.43;4.60;;;;;;;21.21;57.27;99756.84;5087670;28;20649;-72
2021/05/11 07:23:00;;;;;;;5.80;4.30;;;;;;;21.31;56.76;99755.91;5086040;28;20216;-72
2021/05/11 07:25:30;;;;;;;7.47;4.07;;;;;;;21.48;57.71;99753.69;5087504;28;20208;-74
2021/05/11 07:30:40;;;;;;;6.50;4.27;;;;;;;21.70;56.60;99756.16;5079834;28;20252;-72
2021/05/11 07:33:07;;;;;;;5.50;4.03;;;;;;;21.82;57.69;99753.44;5086723;28;20223;-72
2021/05/11 07:35:35;;;;;;;7.40;4.63;;;;;;;22.02;57.33;99752.53;5085458;28;20197;-72
2021/05/11 07:38:01;;;;;;;7.50;5.03;;;;;;;22.15;58.73;99749.63;5083188;28;20218;-72
2021/05/11 07:40:27;;;;;;;6.07;4.40;;;;;;;22.27;59.26;99758.34;5087154;28;20225;-72
2021/05/11 07:42:53;;;;;;;7.20;4.40;;;;;;;22.44;55.79;99760.34;5079535;28;20202;-72
2021/05/11 07:45:29;;;;;;;5.53;4.33;;;;;;;22.56;56.13;99760.22;5078878;28;20702;-72
2021/05/11 07:48:12;;;;;;;7.87;4.03;;;;;;;22.69;56.53;99758.13;5083173;28;20212;-72
2021/05/11 07:56:42;;;;;;;6.00;3.90;;;;;;;23.13;55.77;99765.66;5025925;28;20290;-72
2021/05/11 08:02:03;;;;;;;4.33;3.20;;;;;;;23.24;53.95;99769.03;5057503;28;20233;-72
2021/05/11 08:04:36;;;;;;;4.07;3.00;;;;;;;23.43;54.09;99770.81;5084041;28;20259;-73
2021/05/11 08:09:56;;;;;;;2.70;2.20;;;;;;;23.73;51.76;99782.22;5086935;28;20236;-72
2021/05/11 08:15:18;;;;;;;5.70;3.10;;;;;;;23.94;52.30;99783.81;5091664;28;20194;-72
2021/05/11 08:17:47;;;;;;;5.43;2.90;;;;;;;23.84;52.74;99786.53;5082087;28;20282;-72
2021/05/11 08:23:16;;;;;;;2.65;2.42;;;;;;;24.07;51.63;99794.97;5089489;28;20202;-73
2021/05/11 08:28:27;;;;;;;3.40;2.78;;;;;;;24.20;52.52;99781.31;5089244;28;20205;-72
2021/05/11 08:30:53;;;;;;;5.28;2.60;;;;;;;24.36;51.98;99780.66;5088258;28;20229;-72
2021/05/11 08:33:20;;;;;;;5.03;2.40;;;;;;;24.48;50.24;99771.47;5087980;28;20198;-72
2021/05/11 08:35:49;;;;;;;7.18;2.60;;;;;;;24.50;49.90;99774.84;5091324;28;20198;-72
2021/05/11 08:38:16;;;;;;;3.97;2.60;;;;;;;24.49;48.69;99773.16;5085316;28;20262;-72
2021/05/11 08:40:42;;;;;;;2.70;2.28;;;;;;;24.55;50.96;99763.75;5085875;28;20214;-72
2021/05/11 08:43:23;;;;;;;5.43;2.50;;;;;;;24.51;50.38;99760.50;5087794;28;20197;-73
2021/05/11 08:45:50;;;;;;;2.53;2.20;;;;;;;24.66;49.00;99757.34;5088318;28;20204;-72
2021/05/11 08:48:17;;;;;;;3.25;2.20;;;;;;;24.90;48.70;99757.56;5089630;28;20220;-72
2021/05/11 08:50:46;;;;;;;5.05;2.33;;;;;;;24.98;48.08;99759.47;5086391;28;20213;-72
2021/05/11 08:53:25;;;;;;;3.28;2.33;;;;;;;25.18;48.16;99765.47;5094940;28;20193;-72
2021/05/11 09:07:14;;;;;;;3.00;2.00;;;;;;;25.13;47.26;99751.75;5086701;28;20214;-72
2021/05/11 09:23:55;;;;;;;3.67;1.75;;;;;;;25.78;48.03;99740.66;5041708;28;20233;-72
2021/05/11 09:26:34;;;;;;;4.15;2.35;;;;;;;25.80;45.38;99752.00;5084955;28;20205;-72
2021/05/11 09:29:05;;;;;;;3.20;1.90;;;;;;;25.89;45.97;99748.41;5083190;28;20201;-72
2021/05/11 09:31:46;;;;;;;2.60;1.83;;;;;;;26.00;46.34;99744.63;5086682;28;20721;-73
2021/05/11 09:34:23;;;;;;;3.60;2.10;;;;;;;25.97;46.00;99734.25;5085447;28;20196;-72
2021/05/11 09:45:40;;;;;;;3.13;1.90;;;;;;;26.31;45.03;99708.47;5085493;28;20308;-72
2021/05/11 10:36:48;;;;;;;1.60;1.40;;;;;;;27.66;39.47;99660.72;5084592;28;20728;-72
2021/05/11 10:48:20;;;;;;;3.05;1.75;;;;;;;27.87;38.13;99649.41;5115501;27;20197;-73
2021/05/11 10:50:49;;;;;;;2.90;1.42;;;;;;;27.92;37.56;99647.91;5119777;27;20255;-73
2021/05/11 10:53:39;;;;;;;2.28;1.70;;;;;;;27.93;40.19;99654.06;5116038;27;20575;-73
2021/05/11 11:02:39;;;;;;;3.00;1.60;;;;;;;27.87;39.64;99638.69;5114038;27;20228;-73
2021/05/11 11:05:07;;;;;;;1.92;1.50;;;;;;;27.97;38.30;99649.19;5112229;27;20251;-72
2021/05/11 11:07:38;;;;;;;4.13;1.80;;;;;;;28.12;37.33;99648.25;5115693;27;20196;-73
2021/05/11 11:10:08;;;;;;;2.40;1.63;;;;;;;28.16;37.10;99645.25;5120080;27;20202;-73
2021/05/11 11:12:39;;;;;;;2.67;1.40;;;;;;;28.15;37.79;99647.09;5114669;27;20189;-73
2021/05/11 11:15:15;;;;;;;2.90;1.80;;;;;;;28.19;38.44;99645.72;5122928;27;20205;-73
2021/05/11 11:17:44;;;;;;;5.25;1.55;;;;;;;28.19;35.38;99651.06;5119283;27;20199;-73
2021/05/11 11:20:13;;;;;;;2.85;1.75;;;;;;;28.17;36.33;99646.91;5117207;27;20207;-73
2021/05/11 11:25:25;;;;;;;2.35;1.40;;;;;;;28.24;38.75;99643.34;5114661;27;20200;-73
2021/05/11 11:27:52;;;;;;;3.17;1.58;;;;;;;28.33;36.89;99636.91;5119443;27;20719;-73
2021/05/11 11:30:19;;;;;;;2.40;1.75;;;;;;;28.29;39.05;99640.94;5120341;27;20286;-73
2021/05/11 11:32:47;;;;;;;2.72;1.55;;;;;;;28.43;39.38;99627.78;5123045;27;20718;-73
2021/05/11 11:35:13;;;;;;;3.78;1.63;;;;;;;28.30;37.44;99637.28;5131195;27;20196;-73
2021/05/11 11:37:40;;;;;;;2.10;1.50;;;;;;;28.31;38.45;99640.78;5118795;27;20595;-73
2021/05/11 11:40:08;;;;;;;2.28;1.42;;;;;;;28.36;38.91;99635.72;5116412;27;20196;-73
2021/05/11 11:42:38;;;;;;;2.92;1.50;;;;;;;28.51;39.57;99627.72;5116965;27;20220;-73
2021/05/11 11:45:07;;;;;;;2.90;1.50;;;;;;;28.47;39.46;99632.59;5118975;27;20561;-73
2021/05/11 11:47:41;;;;;;;2.47;1.55;;;;;;;28.41;37.78;99629.81;5136996;27;20188;-73
2021/05/11 11:50:11;;;;;;;2.53;1.60;;;;;;;28.54;38.44;99630.06;5116848;27;20208;-73
2021/05/11 11:52:40;;;;;;;3.50;2.08;;;;;;;28.46;39.43;99616.69;5119682;27;20193;-73
2021/05/11 11:57:54;;;;;;;3.70;1.67;;;;;;;28.60;39.64;99615.09;5097817;28;23527;-72
2021/05/11 12:00:23;;;;;;;3.40;1.50;;;;;;;28.58;37.11;99617.94;5101578;28;20275;-73
2021/05/11 12:03:01;;;;;;;2.75;1.50;;;;;;;28.64;35.43;99619.94;5110577;27;20201;-73
2021/05/11 12:05:30;;;;;;;4.07;1.60;;;;;;;28.73;36.21;99618.00;5099609;27;20201;-74
2021/05/11 12:08:18;;;;;;;1.58;1.40;;;;;;;28.64;38.09;99613.72;5102878;27;20204;-73
2021/05/11 12:10:46;;;;;;;4.88;1.92;;;;;;;28.77;37.98;99616.59;5102642;27;20209;-73
2021/05/11 12:13:14;;;;;;;4.15;1.67;;;;;;;28.69;37.29;99612.16;5105361;28;20198;-73
2021/05/11 12:15:40;;;;;;;4.30;1.80;;;;;;;28.78;37.93;99614.78;5100086;28;20236;-72
2021/05/11 12:18:12;;;;;;;3.00;1.60;;;;;;;28.84;36.24;99606.00;5102697;28;20208;-73
2021/05/11 12:20:39;;;;;;;4.32;1.90;;;;;;;28.84;38.06;99604.13;5107037;27;20209;-72
2021/05/11 12:23:14;;;;;;;2.53;1.50;;;;;;;28.96;37.97;99599.16;5111473;27;20193;-72
2021/05/11 12:25:41;;;;;;;2.58;1.90;;;;;;;28.89;39.18;99587.50;5101802;27;20282;-72
2021/05/11 12:28:08;;;;;;;3.85;1.63;;;;;;;28.77;37.31;99597.00;5098106;27;20202;-72
2021/05/11 12:30:40;;;;;;;5.50;1.70;;;;;;;28.96;38.56;99585.75;5105425;27;20281;-72
2021/05/11 12:33:10;;;;;;;3.58;1.60;;;;;;;29.01;37.64;99582.50;5106140;27;20270;-72
2021/05/11 12:35:37;;;;;;;2.70;1.50;;;;;;;29.03;35.04;99597.38;5109229;27;20194;-73
2021/05/11 12:38:19;;;;;;;4.25;1.75;;;;;;;29.01;36.34;99587.88;5111503;27;20205;-73
2021/05/11 12:40:52;;;;;;;4.70;1.65;;;;;;;29.01;35.03;99594.06;5103540;27;20759;-73
2021/05/11 12:43:37;;;;;;;2.60;1.60;;;;;;;29.08;36.99;99594.97;5105364;27;20242;-72
2021/05/11 12:46:14;;;;;;;3.28;1.70;;;;;;;28.95;38.19;99580.56;5102058;27;20666;-73
2021/05/11 12:48:58;;;;;;;1.90;1.60;;;;;;;28.99;38.59;99584.56;5100976;27;20237;-72
2021/05/11 12:51:29;;;;;;;2.47;1.50;;;;;;;29.01;39.04;99571.78;5113660;27;20217;-72
2021/05/11 12:53:58;;;;;;;2.95;1.25;;;;;;;29.08;36.55;99580.75;5101315;28;20204;-72
2021/05/11 12:56:45;;;;;;;2.72;1.70;;;;;;;29.21;37.55;99578.25;5101744;27;20523;-73
2021/05/11 12:59:12;;;;;;;3.10;1.70;;;;;;;29.23;35.59;99578.94;5097116;27;20685;-73
2021/05/11 13:01:53;;;;;;;2.38;1.60;;;;;;;29.27;35.50;99577.53;5107654;27;20229;-73
2021/05/11 13:04:59;;;;;;;2.20;1.40;;;;;;;29.12;37.25;99573.97;5108516;27;20225;-73
2021/05/11 13:16:09;;;;;;;4.75;2.17;;;;;;;28.97;39.57;99552.53;5100298;28;20696;-73
2021/05/11 13:26:51;;;;;;;2.75;1.80;;;;;;;29.20;37.28;99552.47;5098839;28;20295;-72
2021/05/11 13:29:27;;;;;;;2.33;1.95;;;;;;;29.19;37.40;99556.16;5104962;28;20613;-72
2021/05/11 13:31:57;;;;;;;4.35;1.88;;;;;;;29.04;38.63;99555.28;5099404;28;20212;-72
2021/05/11 13:34:23;;;;;;;5.18;2.22;;;;;;;29.04;38.28;99552.59;5104719;27;20196;-73
2021/05/11 13:36:49;;;;;;;2.40;1.70;;;;;;;29.05;38.29;99551.59;5102813;28;20198;-72
2021/05/11 13:39:15;;;;;;;3.22;1.90;;;;;;;28.99;39.94;99552.34;5104846;27;20950;-73
2021/05/11 13:41:42;;;;;;;3.05;1.73;;;;;;;29.11;39.60;99552.69;5102804;27;20216;-72
2021/05/11 13:44:09;;;;;;;4.40;1.73;;;;;;;29.06;38.91;99559.47;5104379;28;20219;-72
2021/05/11 13:46:35;;;;;;;2.95;1.80;;;;;;;28.87;38.51;99560.03;5103068;28;20232;-73
2021/05/11 13:49:01;;;;;;;3.97;2.00;;;;;;;28.93;38.96;99542.34;5101976;27;20192;-72
2021/05/11 13:51:27;;;;;;;3.85;1.90;;;;;;;28.88;38.17;99545.59;5103249;28;20239;-73
2021/05/11 13:53:57;;;;;;;2.83;2.17;;;;;;;28.99;38.89;99541.63;5100644;28;20189;-72
2021/05/11 13:56:37;;;;;;;2.45;1.80;;;;;;;28.98;38.67;99551.50;5103462;28;20590;-73
2021/05/11 14:02:01;;;;;;;3.38;1.83;;;;;;;28.81;38.45;99539.28;5100545;27;20611;-72
2021/05/11 14:04:28;;;;;;;5.32;2.10;;;;;;;28.76;40.52;99542.56;5109158;27;20292;-73
2021/05/11 14:06:54;;;;;;;2.60;1.60;;;;;;;28.83;41.01;99529.22;5109620;27;20870;-73
2021/05/11 14:09:20;;;;;;;3.05;2.17;;;;;;;28.98;39.12;99529.22;5118682;27;20283;-73
2021/05/11 14:11:46;;;;;;;2.90;1.75;;;;;;;28.82;39.32;99528.38;5104316;28;20213;-72
2021/05/11 14:14:14;;;;;;;4.57;1.85;;;;;;;28.79;40.27;99526.06;5105258;27;20206;-73
2021/05/11 14:16:42;;;;;;;3.05;1.77;;;;;;;28.88;38.30;99518.75;5097700;28;20193;-72
2021/05/11 14:19:09;;;;;;;5.03;1.95;;;;;;;28.84;39.69;99506.75;5096735;27;20202;-73
2021/05/11 14:21:35;;;;;;;3.95;1.73;;;;;;;28.81;40.33;99499.91;5102457;28;20776;-73
2021/05/11 14:24:02;;;;;;;3.05;2.00;;;;;;;28.73;40.56;99504.56;5099350;28;20295;-72
2021/05/11 14:26:28;;;;;;;2.03;1.85;;;;;;;28.71;39.07;99496.69;5095670;28;20195;-72
2021/05/11 14:28:56;;;;;;;3.50;1.80;;;;;;;28.71;38.82;99491.31;5100275;28;20236;-73
2021/05/11 14:31:24;;;;;;;1.67;1.58;;;;;;;28.79;38.36;99499.25;5109331;27;20255;-73
2021/05/11 14:33:50;;;;;;;5.30;1.80;;;;;;;28.79;36.48;99499.25;5102870;27;20282;-73
2021/05/11 14:36:17;;;;;;;3.42;2.33;;;;;;;28.85;37.12;99503.88;5101201;28;20197;-72
2021/05/11 14:38:43;;;;;;;3.30;1.90;;;;;;;28.95;38.30;99498.22;5101943;28;20253;-73
2021/05/11 14:41:09;;;;;;;4.95;2.13;;;;;;;29.03;38.17;99494.63;5103949;28;20217;-73
2021/05/11 14:43:39;;;;;;;3.05;1.65;;;;;;;29.02;39.43;99495.63;5102277;28;20228;-72
2021/05/11 14:46:07;;;;;;;2.58;1.60;;;;;;;29.12;38.32;99492.66;5103669;28;20204;-73
2021/05/11 14:48:34;;;;;;;2.60;1.92;;;;;;;29.14;38.76;99486.06;5098132;28;20843;-73
2021/05/11 14:51:01;;;;;;;2.85;1.50;;;;;;;29.11;38.38;99483.78;5093796;28;20304;-73